createdAt,value
2023-05-10T00:02:06.969Z,77.55
2023-05-10T00:04:35.734Z,77.70
2023-05-10T00:07:03.921Z,77.51
2023-05-10T00:15:50.417Z,78.01
2023-05-10T00:18:18.999Z,77.82
2023-05-10T00:20:48.481Z,77.67
2023-05-10T00:23:17.853Z,77.56
2023-05-10T00:25:46.201Z,77.30
2023-05-10T00:28:14.446Z,77.20
2023-05-10T00:30:42.608Z,77.48
2023-05-10T00:33:10.984Z,77.34
2023-05-10T00:35:40.717Z,77.00
2023-05-10T00:38:09.873Z,77.29
2023-05-10T00:40:38.680Z,77.65
2023-05-10T00:43:10.325Z,77.90
2023-05-10T00:45:41.252Z,78.29
2023-05-10T00:48:09.835Z,78.28
2023-05-10T00:50:39.917Z,78.06
2023-05-10T00:53:10.003Z,78.45
2023-05-10T00:55:38.517Z,78.39
2023-05-10T00:58:08.123Z,78.94
2023-05-10T01:00:39.038Z,79.22
2023-05-10T01:03:07.385Z,78.68
2023-05-10T01:05:35.778Z,79.11
2023-05-10T01:08:04.040Z,79.13
2023-05-10T01:10:33.027Z,79.18
2023-05-10T01:13:01.752Z,79.36
2023-05-10T01:15:32.037Z,79.24
2023-05-10T01:18:02.745Z,79.29
2023-05-10T01:20:43.503Z,79.04
2023-05-10T01:23:29.696Z,79.53
2023-05-10T01:26:21.766Z,80.01
2023-05-10T01:29:02.929Z,79.74
2023-05-10T01:31:59.391Z,80.02
2023-05-10T01:34:37.861Z,80.61
2023-05-10T01:37:18.108Z,80.99
2023-05-10T01:40:04.213Z,81.61
2023-05-10T01:43:02.842Z,81.63
2023-05-10T01:45:56.873Z,81.82
2023-05-10T01:48:28.236Z,82.09
2023-05-10T01:50:59.533Z,81.87
2023-05-10T01:53:29.125Z,82.20
2023-05-10T01:55:59.919Z,82.15
2023-05-10T01:58:36.320Z,82.55
2023-05-10T02:01:08.551Z,82.96
2023-05-10T02:03:39.691Z,82.81
2023-05-10T02:06:08.714Z,82.77
2023-05-10T02:08:38.359Z,82.92
2023-05-10T02:11:07.007Z,83.37
2023-05-10T02:13:36.636Z,83.66
2023-05-10T02:16:09.558Z,84.66
2023-05-10T02:18:42.678Z,84.12
2023-05-10T02:21:12.155Z,83.75
2023-05-10T02:23:41.677Z,84.19
2023-05-10T02:26:13.097Z,83.82
2023-05-10T02:28:44.533Z,83.91
2023-05-10T02:31:14.070Z,84.51
2023-05-10T02:33:43.432Z,84.54
2023-05-10T02:36:14.052Z,84.27
2023-05-10T02:38:42.618Z,84.60
2023-05-10T02:41:12.520Z,84.65
2023-05-10T02:43:42.236Z,84.89
2023-05-10T02:46:12.202Z,85.53
2023-05-10T02:48:40.584Z,85.19
2023-05-10T02:51:15.082Z,85.10
2023-05-10T02:53:47.779Z,86.01
2023-05-10T02:56:28.208Z,85.65
2023-05-10T02:58:56.554Z,85.71
2023-05-10T03:01:25.018Z,85.99
2023-05-10T03:03:53.232Z,86.94
2023-05-10T03:06:21.419Z,87.60
2023-05-10T03:08:51.499Z,87.45
2023-05-10T03:11:50.587Z,87.71
2023-05-10T03:14:26.872Z,88.00
2023-05-10T03:17:05.763Z,87.92
2023-05-10T03:19:47.174Z,88.66
2023-05-10T03:22:26.855Z,88.91
2023-05-10T03:24:58.744Z,88.43
2023-05-10T03:27:31.035Z,88.16
2023-05-10T03:30:03.406Z,88.32
2023-05-10T03:32:35.510Z,88.98
2023-05-10T03:35:14.263Z,89.56
2023-05-10T03:37:43.039Z,89.70
2023-05-10T03:40:11.744Z,89.74
2023-05-10T03:42:42.789Z,89.78
2023-05-10T03:45:11.176Z,90.05
2023-05-10T03:47:40.044Z,91.20
2023-05-10T03:50:08.987Z,91.33
2023-05-10T03:52:40.171Z,90.42
2023-05-10T03:55:09.692Z,89.97
2023-05-10T03:57:39.538Z,90.18
2023-05-10T04:00:10.758Z,89.97
2023-05-10T04:02:46.375Z,89.78
2023-05-10T04:05:19.635Z,89.55
2023-05-10T04:07:50.365Z,89.89
2023-05-10T04:10:18.764Z,90.86
2023-05-10T04:12:47.080Z,91.71
2023-05-10T04:15:15.236Z,91.88
2023-05-10T04:17:43.451Z,90.38
2023-05-10T04:20:17.246Z,89.95
2023-05-10T04:22:50.647Z,89.87
2023-05-10T04:25:20.211Z,90.14
2023-05-10T04:27:48.558Z,90.42
2023-05-10T04:30:17.093Z,90.32
2023-05-10T04:33:06.303Z,90.49
2023-05-10T04:35:36.286Z,90.23
2023-05-10T04:38:05.255Z,90.54
2023-05-10T04:40:44.824Z,90.25
2023-05-10T04:43:13.074Z,90.19
2023-05-10T04:45:41.397Z,90.09
2023-05-10T04:48:09.448Z,89.85
2023-05-10T04:50:38.377Z,89.79
2023-05-10T04:53:11.802Z,89.31
2023-05-10T04:55:40.135Z,89.15
2023-05-10T04:58:08.409Z,88.84
2023-05-10T05:04:49.443Z,86.47
2023-05-10T05:07:18.259Z,84.98
2023-05-10T05:09:46.462Z,84.22
2023-05-10T05:12:15.513Z,83.96
2023-05-10T05:14:44.630Z,84.02
2023-05-10T05:17:12.981Z,83.19
2023-05-10T05:19:45.687Z,81.54
2023-05-10T05:22:19.659Z,82.21
2023-05-10T05:24:48.828Z,81.53
2023-05-10T05:27:16.960Z,81.97
2023-05-10T05:29:45.198Z,81.18
2023-05-10T05:32:13.509Z,79.69
2023-05-10T05:34:47.899Z,79.31
2023-05-10T05:37:19.665Z,77.31
2023-05-10T05:39:49.508Z,76.22
2023-05-10T05:42:20.076Z,74.66
2023-05-10T05:44:50.058Z,73.31
2023-05-10T05:47:20.105Z,71.61
2023-05-10T05:49:48.560Z,67.52
2023-05-10T05:52:18.878Z,65.22
2023-05-10T05:55:10.570Z,64.68
2023-05-10T05:57:42.714Z,65.17
2023-05-10T06:00:11.536Z,62.47
2023-05-10T06:02:43.339Z,60.65
2023-05-10T06:05:33.988Z,57.79
2023-05-10T06:08:02.783Z,59.65
2023-05-10T06:10:31.784Z,59.49
2023-05-10T06:13:06.079Z,54.13
2023-05-10T06:15:34.480Z,55.26
2023-05-10T06:18:03.478Z,52.95
2023-05-10T06:20:37.024Z,53.22
2023-05-10T06:23:06.012Z,52.88
2023-05-10T06:25:34.118Z,53.65
2023-05-10T06:28:02.809Z,54.15
2023-05-10T06:30:31.202Z,54.37
2023-05-10T06:32:59.417Z,54.17
2023-05-10T06:35:28.570Z,54.61
2023-05-10T06:37:56.966Z,54.99
2023-05-10T06:40:25.120Z,54.89
2023-05-10T06:42:53.403Z,55.10
2023-05-10T06:45:26.663Z,55.02
2023-05-10T06:47:55.384Z,55.42
2023-05-10T06:50:23.667Z,55.28
2023-05-10T06:52:54.510Z,55.08
2023-05-10T06:55:24.598Z,55.82
2023-05-10T06:57:54.416Z,56.10
2023-05-10T07:00:23.594Z,56.20
2023-05-10T07:02:52.281Z,55.63
2023-05-10T07:05:42.904Z,55.33
2023-05-10T07:08:11.533Z,54.18
2023-05-10T07:10:39.863Z,53.59
2023-05-10T07:13:08.479Z,53.47
2023-05-10T07:15:37.013Z,53.10
2023-05-10T07:18:08.850Z,52.03
2023-05-10T07:20:37.695Z,52.01
2023-05-10T07:23:06.095Z,51.50
2023-05-10T07:25:35.024Z,49.93
2023-05-10T07:28:03.216Z,50.47
2023-05-10T07:30:31.976Z,47.97
2023-05-10T07:33:01.649Z,49.54
2023-05-10T07:35:30.281Z,48.89
2023-05-10T07:37:58.648Z,47.39
2023-05-10T07:40:27.816Z,48.00
2023-05-10T07:42:56.283Z,47.90
2023-05-10T07:45:25.701Z,46.66
2023-05-10T07:48:03.519Z,45.91
2023-05-10T07:50:36.269Z,46.06
2023-05-10T07:53:08.996Z,44.64
2023-05-10T07:55:40.168Z,42.70
2023-05-10T07:58:08.820Z,43.10
2023-05-10T08:00:41.679Z,40.72
2023-05-10T08:03:10.539Z,41.81
2023-05-10T08:05:39.333Z,40.80
2023-05-10T08:08:08.925Z,39.60
2023-05-10T08:10:38.437Z,39.35
2023-05-10T08:13:07.292Z,39.78
2023-05-10T08:19:51.904Z,39.18
2023-05-10T08:25:54.725Z,37.36
2023-05-10T08:28:44.773Z,36.60
2023-05-10T08:31:14.141Z,35.54
2023-05-10T08:33:45.187Z,34.70
2023-05-10T08:36:15.516Z,35.08
2023-05-10T08:38:43.977Z,35.45
2023-05-10T08:41:12.710Z,33.72
2023-05-10T08:43:47.198Z,33.13
2023-05-10T08:46:19.209Z,32.75
2023-05-10T08:48:49.189Z,32.16
2023-05-10T08:51:32.710Z,31.41
2023-05-10T08:54:07.095Z,32.20
2023-05-10T08:59:28.553Z,33.00
2023-05-10T09:02:00.833Z,32.55
2023-05-10T09:04:29.398Z,31.77
2023-05-10T09:06:58.422Z,32.34
2023-05-10T09:09:26.963Z,32.24
2023-05-10T09:11:55.959Z,32.51
2023-05-10T09:14:45.924Z,32.74
2023-05-10T09:17:15.518Z,32.86
2023-05-10T09:19:44.116Z,32.82
2023-05-10T09:22:16.603Z,32.40
2023-05-10T09:25:14.861Z,33.12
2023-05-10T09:28:07.505Z,33.69
2023-05-10T09:30:37.149Z,33.24
2023-05-10T09:33:05.514Z,33.43
2023-05-10T09:35:35.166Z,34.34
2023-05-10T09:38:06.640Z,34.08
2023-05-10T09:40:34.850Z,34.46
2023-05-10T09:43:08.560Z,33.04
2023-05-10T09:45:38.929Z,32.41
2023-05-10T09:48:09.033Z,31.24
2023-05-10T09:50:37.963Z,30.35
2023-05-10T09:53:07.924Z,31.22
2023-05-10T09:55:41.898Z,30.39
2023-05-10T09:58:12.922Z,30.43
2023-05-10T10:00:43.329Z,31.00
2023-05-10T10:03:19.721Z,31.43
2023-05-10T10:05:50.439Z,31.78
2023-05-10T10:08:18.803Z,31.87
2023-05-10T10:10:48.065Z,32.37
2023-05-10T10:13:16.786Z,32.64
2023-05-10T10:15:45.876Z,34.61
2023-05-10T10:18:18.747Z,35.65
2023-05-10T10:21:01.859Z,35.83
2023-05-10T10:41:03.620Z,35.17
2023-05-10T10:43:31.981Z,35.87
2023-05-10T10:46:19.044Z,37.02
2023-05-10T10:49:11.105Z,38.04
2023-05-10T10:51:40.305Z,38.96
2023-05-10T10:54:11.881Z,39.47
2023-05-10T10:56:41.746Z,40.20
2023-05-10T10:59:10.157Z,41.18
2023-05-10T11:01:38.336Z,42.03
2023-05-10T11:04:06.753Z,42.49
2023-05-10T11:06:36.994Z,41.85
2023-05-10T11:09:35.487Z,42.55
2023-05-10T11:12:39.507Z,43.38
2023-05-10T11:26:37.049Z,44.02
2023-05-10T11:29:06.580Z,44.48
2023-05-10T11:31:36.744Z,44.13
2023-05-10T11:34:05.151Z,44.05
2023-05-10T11:36:38.102Z,43.13
2023-05-10T11:39:07.139Z,43.87
2023-05-10T11:41:35.501Z,43.67
2023-05-10T11:44:04.088Z,42.49
2023-05-10T11:46:57.955Z,42.05
2023-05-10T11:49:47.880Z,41.76
2023-05-10T11:52:16.564Z,41.58
2023-05-10T11:54:55.057Z,41.92
2023-05-10T11:57:29.531Z,40.70
2023-05-10T11:59:59.151Z,41.41
2023-05-10T12:02:27.932Z,40.84
2023-05-10T12:04:58.453Z,40.40
2023-05-10T12:07:27.821Z,40.93
2023-05-10T12:10:09.746Z,40.07
2023-05-10T12:12:45.552Z,39.46
2023-05-10T12:15:47.616Z,37.91
2023-05-10T12:22:58.274Z,38.91
2023-05-10T12:25:33.835Z,38.93
2023-05-10T12:28:07.083Z,39.08
2023-05-10T12:30:40.266Z,39.64
2023-05-10T12:33:13.487Z,40.08
2023-05-10T12:36:00.485Z,40.33
2023-05-10T12:38:30.845Z,41.25
2023-05-10T12:41:02.489Z,41.67
2023-05-10T12:43:31.499Z,42.09
2023-05-10T12:46:00.510Z,42.33
2023-05-10T12:48:29.997Z,42.79
2023-05-10T12:51:30.600Z,42.45
2023-05-10T13:10:15.046Z,43.70
2023-05-10T13:13:02.029Z,44.17
2023-05-10T13:15:31.155Z,43.72
2023-05-10T13:18:04.195Z,43.18
2023-05-10T13:21:32.864Z,43.26
2023-05-10T13:24:01.460Z,43.21
2023-05-10T13:26:29.809Z,43.26
2023-05-10T13:28:58.154Z,43.38
2023-05-10T13:31:30.601Z,43.79
2023-05-10T13:33:59.606Z,44.06
2023-05-10T13:36:28.447Z,44.45
2023-05-10T13:39:03.630Z,44.77
2023-05-10T13:41:33.431Z,44.93
2023-05-10T13:44:04.139Z,44.75
2023-05-10T13:46:42.656Z,44.72
2023-05-10T13:49:50.851Z,44.67
2023-05-10T13:52:20.322Z,44.11
2023-05-10T13:54:50.849Z,43.97
2023-05-10T13:57:19.792Z,44.00
2023-05-10T13:59:49.689Z,44.19
2023-05-10T14:02:18.625Z,43.83
2023-05-10T14:04:48.927Z,43.83
2023-05-10T14:07:37.330Z,44.06
2023-05-10T14:10:07.431Z,44.07
2023-05-10T14:12:35.986Z,43.82
2023-05-10T14:15:07.864Z,43.54
2023-05-10T14:17:38.440Z,43.68
2023-05-10T14:20:08.192Z,43.28
2023-05-10T14:22:48.988Z,43.01
2023-05-10T14:25:17.630Z,42.14
2023-05-10T14:27:49.477Z,42.02
2023-05-10T14:30:19.553Z,42.35
2023-05-10T14:32:49.963Z,42.79
2023-05-10T14:35:23.330Z,42.52
2023-05-10T14:37:51.688Z,42.39
2023-05-10T14:40:23.197Z,42.46
2023-05-10T14:42:51.498Z,42.72
2023-05-10T14:45:19.636Z,42.91
2023-05-10T14:48:11.711Z,42.94
2023-05-10T14:50:40.752Z,42.73
2023-05-10T14:53:09.521Z,42.97
2023-05-10T15:14:01.024Z,43.78
2023-05-10T15:25:07.289Z,44.89
2023-05-10T15:31:58.090Z,44.73
2023-05-10T15:53:56.441Z,47.24
2023-05-10T15:56:25.000Z,47.20
2023-05-10T15:59:13.272Z,47.05
2023-05-10T16:01:41.751Z,47.48
2023-05-10T16:04:10.024Z,47.40
2023-05-10T16:09:56.144Z,47.87
2023-05-10T16:12:24.670Z,47.86
2023-05-10T16:14:54.730Z,47.92
2023-05-10T16:17:26.280Z,48.00
2023-05-10T16:19:56.772Z,48.12
2023-05-10T16:22:29.264Z,48.24
2023-05-10T16:24:57.881Z,49.43
2023-05-10T16:27:30.142Z,48.96
2023-05-10T16:29:59.189Z,49.18
2023-05-10T16:32:27.465Z,49.32
2023-05-10T16:34:56.059Z,49.48
2023-05-10T16:37:26.825Z,49.34
2023-05-10T16:39:56.448Z,49.98
2023-05-10T16:53:16.060Z,51.42
2023-05-10T16:55:46.708Z,52.22
2023-05-10T16:58:17.846Z,52.62
2023-05-10T17:01:10.432Z,52.25
2023-05-10T17:03:41.991Z,52.76
2023-05-10T17:06:12.522Z,53.29
2023-05-10T17:08:42.217Z,53.37
2023-05-10T17:11:14.728Z,53.40
2023-05-10T17:14:16.519Z,53.71
2023-05-10T17:16:58.161Z,53.92
2023-05-10T17:19:51.968Z,54.55
2023-05-10T17:22:46.220Z,54.58
2023-05-10T17:25:38.672Z,54.57
2023-05-10T17:28:34.058Z,54.59
2023-05-10T17:31:05.730Z,54.96
2023-05-10T17:33:35.403Z,55.75
2023-05-10T17:47:14.835Z,56.60
2023-05-10T17:49:45.920Z,56.18
2023-05-10T17:52:22.010Z,56.06
2023-05-10T17:54:53.203Z,56.25
2023-05-10T17:57:43.849Z,56.95
2023-05-10T18:00:13.098Z,56.76
2023-05-10T18:08:14.446Z,58.71
2023-05-10T18:14:40.603Z,59.12
2023-05-10T18:17:16.195Z,59.55
2023-05-10T18:19:48.899Z,59.72
2023-05-10T18:22:19.016Z,59.20
2023-05-10T18:35:40.594Z,59.93
2023-05-10T18:38:13.202Z,60.29
2023-05-10T18:40:46.612Z,60.42
2023-05-10T18:43:18.925Z,60.13
2023-05-10T18:45:51.308Z,60.39
2023-05-10T18:48:22.357Z,60.64
2023-05-10T18:50:53.960Z,60.55
2023-05-10T18:53:27.192Z,60.77
2023-05-10T18:55:58.836Z,60.83
2023-05-10T18:58:31.766Z,60.70
2023-05-10T19:01:02.951Z,60.71
2023-05-10T19:03:35.517Z,60.96
2023-05-10T19:06:06.540Z,61.06
2023-05-10T19:08:37.894Z,61.16
2023-05-10T19:39:52.704Z,64.49
2023-05-10T19:46:22.953Z,65.20
2023-05-10T19:48:55.226Z,64.93
2023-05-10T19:51:32.024Z,64.99
2023-05-10T19:54:19.503Z,65.22
2023-05-10T19:56:50.644Z,65.45
2023-05-10T19:59:43.581Z,65.86
2023-05-10T20:02:14.701Z,65.99
2023-05-10T20:04:45.885Z,66.47
2023-05-10T20:07:16.971Z,66.81
2023-05-10T20:09:48.105Z,67.25
2023-05-10T20:12:19.279Z,68.37
2023-05-10T20:14:50.555Z,68.63
2023-05-10T20:17:22.060Z,68.54
2023-05-10T20:20:18.355Z,68.23
2023-05-10T20:22:50.502Z,68.15
2023-05-10T20:25:21.467Z,68.33
2023-05-10T20:27:52.488Z,68.76
2023-05-10T20:30:24.080Z,69.70
2023-05-10T20:32:53.474Z,70.12
2023-05-10T20:35:24.582Z,69.32
2023-05-10T20:37:55.696Z,69.07
2023-05-10T20:40:26.769Z,69.34
2023-05-10T20:42:55.477Z,69.69
2023-05-10T20:45:26.522Z,70.05
2023-05-10T20:48:29.275Z,69.80
2023-05-10T20:51:00.854Z,69.65
2023-05-10T20:53:33.930Z,69.19
2023-05-10T20:56:06.976Z,69.18
2023-05-10T20:58:38.164Z,69.19
2023-05-10T21:01:09.500Z,68.74
2023-05-10T21:03:40.457Z,68.91
2023-05-10T21:06:11.694Z,68.65
2023-05-10T21:08:43.131Z,68.99
2023-05-10T21:11:14.292Z,69.15
2023-05-10T21:13:45.443Z,69.05
2023-05-10T21:16:16.490Z,69.24
2023-05-10T21:18:48.077Z,69.72
2023-05-10T21:21:19.334Z,70.21
2023-05-10T21:23:51.148Z,70.13
2023-05-10T21:26:22.276Z,69.63
2023-05-10T21:28:53.335Z,69.90
2023-05-10T21:31:24.694Z,70.16
2023-05-10T21:33:57.129Z,70.82
2023-05-10T21:36:28.379Z,70.90
2023-05-10T21:38:59.432Z,71.07
2023-05-10T21:41:30.368Z,71.17
2023-05-10T21:44:01.354Z,71.31
2023-05-10T21:53:02.812Z,72.43
2023-05-10T21:55:34.517Z,72.03
2023-05-10T21:58:06.164Z,72.59
2023-05-10T22:00:37.349Z,72.95
2023-05-10T22:03:08.910Z,73.15
2023-05-10T22:05:37.125Z,73.03
2023-05-10T22:08:08.571Z,73.17
2023-05-10T22:10:39.765Z,73.23
2023-05-10T22:13:11.136Z,72.37
2023-05-10T22:15:42.003Z,72.69
2023-05-10T22:18:13.321Z,73.39
2023-05-10T22:20:47.516Z,74.43
2023-05-10T22:23:18.454Z,74.06
2023-05-10T22:25:51.161Z,74.52
2023-05-10T22:28:22.215Z,74.51
2023-05-10T22:30:53.046Z,74.75
2023-05-10T22:33:24.296Z,74.79
2023-05-10T22:35:55.275Z,74.78
2023-05-10T22:38:26.660Z,75.07
2023-05-10T22:40:57.732Z,75.19
2023-05-10T22:43:28.621Z,74.76
2023-05-10T22:45:59.673Z,75.31
2023-05-10T22:48:34.260Z,75.59
2023-05-10T22:51:04.014Z,76.06
2023-05-10T22:53:35.113Z,75.58
2023-05-10T22:56:06.569Z,75.47
2023-05-10T22:58:37.838Z,75.45
2023-05-10T23:01:09.087Z,75.83
2023-05-10T23:03:40.592Z,75.61
2023-05-10T23:06:11.890Z,76.30
2023-05-10T23:08:43.598Z,75.90
2023-05-10T23:11:14.692Z,75.83
2023-05-10T23:13:45.815Z,76.30
2023-05-10T23:16:17.199Z,75.93
2023-05-10T23:18:48.573Z,76.04
2023-05-10T23:21:19.566Z,75.72
2023-05-10T23:23:48.770Z,76.07
2023-05-10T23:26:19.771Z,76.02
2023-05-10T23:28:50.948Z,75.78
2023-05-10T23:31:21.926Z,75.63
2023-05-10T23:33:53.364Z,75.56
2023-05-10T23:36:24.421Z,75.49
2023-05-10T23:38:55.772Z,75.31
2023-05-10T23:41:27.064Z,75.28
2023-05-10T23:43:58.297Z,75.30
2023-05-10T23:46:29.265Z,75.05
2023-05-10T23:49:03.534Z,74.69
2023-05-10T23:51:34.731Z,75.17
2023-05-10T23:54:05.771Z,75.65
2023-05-10T23:56:36.590Z,75.71
2023-05-10T23:59:07.878Z,75.81
